Aircraft
UPR1037 PR-BAE B737-800
SNTI
Óbidos Municipal Airport
SBSN
Santarém - Maestro Wilson Fonseca International Airport
Pilot:: Klebson
Aircraft:: Douglas DC-6B (PMDG)
Alternate: SNFX
Network: ivao
FLIGHT DETAILS
Distance: 55nm Duration 00h 15m
Cruise Speed: Flight Level: 13000
Validation: Validated Type Charter
Flight Fuel
ZFW: 50133
Block Fuel/Initial FOB: 10656
Flight Fuel: 2671
Cargo
Passengers: 55
Cargo: 120
ROUTE
ROUTE: DCT
REMARKS:
DATE
Date: 26-08-19
Departure Time: 1050
Cargo: 120
FLIGHT DETAILS
Crashed: No
Validator Comments: Validado por Claudenir
Flight Rating: 100
LANDING ANALYSIS
Landing wind: 271º/1 kt
Landing heading: 100º
Landing VS:: -154 ft/min
Landing IAS:: 129 kt
Landing Force G: 1.1 G
Landing Bank: 1
Landing Pitch: -3
Landing Flaps: 100
Navigation Lights: ON
Landing Lights: ON
Beacon Lights: ON
Strobe Lights: ON
viserfly

ALTITUDE CHART

viserfly

MAIN EVENTS

DATE EVENT IAS ALTITUDE
2026-08-19 10:46:24 FLYacars version 1.3.6 0 340
2026-08-19 10:46:24 Aircraft boarding in progress 0 340
2026-08-19 10:46:24 FLAPS 37% 0 340
2026-08-19 10:49:45 Aircraft taxiing to runway 3 340
2026-08-19 10:50:09 Detected Take-off roll, HDG 101, IAS 152kt, GS 156kt, G-force 1.1g, Pitch -8.8deg, Bank -0.3deg, Wind 270/01kt, Temp 14°C 152 334
2026-08-19 10:50:09 Airborne 152 334
2026-08-19 10:50:12 Gear UP, IAS 160kt, GS 163kt, ALT 61ft AGL 160 386
2026-08-19 10:50:35 FLAPS 25% 170kt, ALT 1864ft 170 1864
2026-08-19 10:50:39 FLAPS 12% 179kt, ALT 2016ft 179 2016
2026-08-19 10:50:47 FLAPS 0% 197kt, ALT 2272ft 197 2272
2026-08-19 11:00:46 Gear DOWN, IAS 182kt, GS 194kt, ALT 2939ft AGL 182 2951
2026-08-19 11:00:57 FLAPS 12% 170kt, ALT 2979ft 170 2979
2026-08-19 11:01:05 FLAPS 25% 169kt, ALT 3021ft 169 3021
2026-08-19 11:02:46 FLAPS 37% 168kt, ALT 2632ft 168 2632
2026-08-19 11:02:48 FLAPS 50% 168kt, ALT 2568ft 168 2568
2026-08-19 11:02:50 FLAPS 62% 168kt, ALT 2516ft 168 2516
2026-08-19 11:03:15 FLAPS 75% 147kt, ALT 1705ft 147 1705
2026-08-19 11:03:17 FLAPS 87% 145kt, ALT 1666ft 145 1666
2026-08-19 11:04:28 FLAPS 100% 133kt, ALT 652ft 133 652
2026-08-19 11:05:07 Landed at destination with a landing rate of -154fpm, G-force 1.1g, Pitch -3.2deg, Bank 0.8deg, HDG 100deg, IAS 129kt, GS 131kt, Wind 271/01kt, Temp 14°C 129 206
2026-08-19 11:05:20 Aircraft taxiing to apron 24 204
2026-08-19 11:05:34 Aircraft at gate/stand, ground services are moving into position, disembarkation has begun. Remaining FOB 7985kg FLYacars v1.3.6 0 204
viserfly

ACARS DATA

DATE IAS GS ALTITUDE FUEL CONSUMED OAT FLIGHT STATUS
2026-08-19 10:46:54 0 0 340 73 14 BOARDING
2026-08-19 10:47:24 0 0 340 78 14 BOARDING
2026-08-19 10:47:54 0 0 340 83 14 BOARDING
2026-08-19 10:48:24 0 0 340 1629 14 BOARDING
2026-08-19 10:48:54 0 0 340 1635 14 BOARDING
2026-08-19 10:49:24 0 0 340 1640 14 BOARDING
2026-08-19 10:49:54 68 71 340 1674 15 TAKEOFF
2026-08-19 10:50:24 153 155 1300 1776 13 TAKEOFF
2026-08-19 10:50:54 212 222 2405 1871 10 INITIAL CLIMB
2026-08-19 10:51:24 251 262 3344 1940 8 CLIMB
2026-08-19 10:51:54 248 267 5341 2006 4 CLIMB
2026-08-19 10:52:24 249 275 7203 2068 0 CLIMB
2026-08-19 10:52:54 249 283 9004 2129 -2 CLIMB
2026-08-19 10:53:24 244 284 9986 2165 -4 CLIMB
2026-08-19 10:53:54 257 298 10001 2191 -4 ENROUTE
2026-08-19 10:54:24 239 278 9990 2200 -4 ENROUTE
2026-08-19 10:54:54 255 295 9730 2220 -4 DESCENT
2026-08-19 10:55:24 248 284 8968 2228 -2 DESCENT
2026-08-19 10:55:54 242 274 8212 2236 -1 DESCENT
2026-08-19 10:56:24 237 266 7459 2244 0 DESCENT
2026-08-19 10:56:54 234 260 6709 2252 1 DESCENT
2026-08-19 10:57:24 232 255 5959 2260 3 DESCENT
2026-08-19 10:57:54 231 251 5213 2268 4 DESCENT
2026-08-19 10:58:24 231 248 4463 2276 6 DESCENT
2026-08-19 10:58:54 230 244 3712 2283 7 DESCENT
2026-08-19 10:59:24 226 238 3042 2291 9 DESCENT
2026-08-19 10:59:54 200 211 2988 2300 9 ENROUTE
2026-08-19 11:00:24 197 209 3005 2320 9 ENROUTE
2026-08-19 11:00:54 173 185 2958 2332 9 ENROUTE
2026-08-19 11:01:24 161 172 3019 2361 9 ENROUTE
2026-08-19 11:01:54 157 168 2999 2408 9 ENROUTE
2026-08-19 11:02:24 160 171 2993 2480 9 ENROUTE
2026-08-19 11:02:54 166 175 2388 2532 10 APPROACH
2026-08-19 11:03:24 139 145 1517 2555 12 APPROACH
2026-08-19 11:03:54 133 138 1073 2574 13 ON FINAL
2026-08-19 11:04:24 133 137 699 2596 13 ON FINAL
2026-08-19 11:04:54 133 136 279 2622 14 ON FINAL
2026-08-19 11:05:24 0 0 204 2669 14 TAXI TO APRON
  • Join our VA!

    It has been 11 years of great learning, friendships, and stories.

  • Sign up now!